createdAt,value
2023-02-08T00:01:14.833Z,98228.38
2023-02-08T00:03:43.209Z,98230.16
2023-02-08T00:06:12.022Z,98227.63
2023-02-08T00:08:40.948Z,98224.75
2023-02-08T00:11:10.629Z,98214.84
2023-02-08T00:13:42.275Z,98219.72
2023-02-08T00:16:12.316Z,98222.56
2023-02-08T00:18:40.864Z,98217.56
2023-02-08T00:21:10.914Z,98213.53
2023-02-08T00:23:39.488Z,98207.41
2023-02-08T00:26:08.344Z,98202.28
2023-02-08T00:28:36.748Z,98206.94
2023-02-08T00:31:06.933Z,98205.88
2023-02-08T00:33:35.287Z,98199.69
2023-02-08T00:36:05.273Z,98203.78
2023-02-08T00:38:33.669Z,98213.69
2023-02-08T00:41:01.973Z,98197.66
2023-02-08T00:43:30.245Z,98206.56
2023-02-08T00:46:00.070Z,98197.22
2023-02-08T00:48:29.892Z,98210.38
2023-02-08T00:51:02.301Z,98216.59
2023-02-08T00:53:30.652Z,98216.56
2023-02-08T00:55:59.036Z,98208.72
2023-02-08T00:58:27.325Z,98205.75
2023-02-08T01:00:55.746Z,98218.47
2023-02-08T01:03:24.704Z,98217.75
2023-02-08T01:05:54.616Z,98220.31
2023-02-08T01:08:22.900Z,98208.31
2023-02-08T01:10:51.165Z,98216.63
2023-02-08T01:13:19.470Z,98216.78
2023-02-08T01:15:47.744Z,98211.94
2023-02-08T01:18:16.067Z,98213.72
2023-02-08T01:20:44.337Z,98214.94
2023-02-08T01:23:14.005Z,98212.19
2023-02-08T01:25:42.554Z,98221.09
2023-02-08T01:28:10.869Z,98216.28
2023-02-08T01:30:39.573Z,98214.72
2023-02-08T01:33:08.048Z,98213.88
2023-02-08T01:35:36.323Z,98212.84
2023-02-08T01:38:04.585Z,98214.47
2023-02-08T01:40:34.189Z,98213.69
2023-02-08T01:43:02.485Z,98214.31
2023-02-08T01:45:33.400Z,98210.44
2023-02-08T01:48:07.060Z,98209.63
2023-02-08T01:50:41.430Z,98208.16
2023-02-08T01:53:09.943Z,98207.25
2023-02-08T01:55:41.334Z,98207.09
2023-02-08T01:58:11.508Z,98201.38
2023-02-08T02:00:39.927Z,98200.34
2023-02-08T02:03:08.819Z,98200.19
2023-02-08T02:05:41.343Z,98197.16
2023-02-08T02:08:09.888Z,98192.69
2023-02-08T02:10:40.942Z,98193.41
2023-02-08T02:13:11.805Z,98186.72
2023-02-08T02:15:40.140Z,98200.63
2023-02-08T02:18:09.746Z,98199.91
2023-02-08T02:20:48.228Z,98205.81
2023-02-08T02:23:37.522Z,98193.44
2023-02-08T02:26:29.885Z,98189.47
2023-02-08T02:29:24.462Z,98188.47
2023-02-08T02:32:03.188Z,98190.78
2023-02-08T02:34:38.262Z,98197.91
2023-02-08T02:37:13.216Z,98185.88
2023-02-08T02:39:45.933Z,98191.50
2023-02-08T02:42:36.608Z,98183.59
2023-02-08T02:45:08.564Z,98181.19
2023-02-08T02:47:44.320Z,98187.47
2023-02-08T02:50:19.394Z,98186.09
2023-02-08T02:52:50.014Z,98186.13
2023-02-08T02:55:21.801Z,98185.16
2023-02-08T02:57:51.486Z,98184.22
2023-02-08T03:00:23.890Z,98190.03
2023-02-08T03:02:55.726Z,98190.56
2023-02-08T03:05:24.170Z,98189.09
2023-02-08T03:08:02.040Z,98196.69
2023-02-08T03:10:54.717Z,98191.38
2023-02-08T03:13:29.185Z,98185.44
2023-02-08T03:16:04.095Z,98186.06
2023-02-08T03:18:37.423Z,98193.44
2023-02-08T03:21:11.664Z,98187.94
2023-02-08T03:23:42.997Z,98188.97
2023-02-08T03:26:17.798Z,98186.41
2023-02-08T03:28:51.787Z,98181.13
2023-02-08T03:31:22.642Z,98188.66
2023-02-08T03:33:54.810Z,98189.09
2023-02-08T03:36:25.953Z,98188.66
2023-02-08T03:38:54.758Z,98190.47
2023-02-08T03:41:27.350Z,98192.09
2023-02-08T03:43:59.230Z,98198.50
2023-02-08T03:46:31.005Z,98194.53
2023-02-08T03:49:05.874Z,98194.75
2023-02-08T03:51:35.580Z,98197.47
2023-02-08T03:54:06.263Z,98195.31
2023-02-08T03:56:37.227Z,98196.81
2023-02-08T03:59:08.887Z,98195.81
2023-02-08T04:01:40.069Z,98184.41
2023-02-08T04:04:10.089Z,98184.06
2023-02-08T04:06:38.374Z,98177.38
2023-02-08T04:09:06.717Z,98175.59
2023-02-08T04:11:35.077Z,98176.78
2023-02-08T04:14:03.577Z,98174.31
2023-02-08T04:16:31.869Z,98172.31
2023-02-08T04:19:00.310Z,98170.03
2023-02-08T04:21:29.989Z,98163.75
2023-02-08T04:23:58.381Z,98159.25
2023-02-08T04:26:26.722Z,98161.44
2023-02-08T04:28:55.051Z,98155.63
2023-02-08T04:31:23.526Z,98164.78
2023-02-08T04:33:51.969Z,98152.28
2023-02-08T04:36:20.289Z,98157.03
2023-02-08T04:38:49.952Z,98161.56
2023-02-08T04:41:18.304Z,98168.25
2023-02-08T04:43:46.608Z,98164.31
2023-02-08T04:46:15.039Z,98163.94
2023-02-08T04:48:43.401Z,98156.50
2023-02-08T04:51:11.757Z,98155.06
2023-02-08T04:53:40.016Z,98154.13
2023-02-08T04:56:09.850Z,98160.53
2023-02-08T04:58:38.171Z,98160.97
2023-02-08T05:01:07.616Z,98155.38
2023-02-08T05:03:36.171Z,98152.13
2023-02-08T05:06:04.752Z,98146.78
2023-02-08T05:08:33.101Z,98141.44
2023-02-08T05:11:01.462Z,98138.25
2023-02-08T05:13:31.172Z,98143.66
2023-02-08T05:15:59.561Z,98136.63
2023-02-08T05:18:28.035Z,98139.28
2023-02-08T05:20:57.300Z,98137.38
2023-02-08T05:23:26.101Z,98140.06
2023-02-08T05:25:54.809Z,98135.03
2023-02-08T05:28:23.592Z,98136.19
2023-02-08T05:30:53.536Z,98135.00
2023-02-08T05:33:22.043Z,98144.28
2023-02-08T05:35:50.401Z,98144.19
2023-02-08T05:38:18.806Z,98143.28
2023-02-08T05:40:47.074Z,98141.91
2023-02-08T05:43:15.386Z,98138.72
2023-02-08T05:45:43.713Z,98140.88
2023-02-08T05:48:13.509Z,98145.41
2023-02-08T05:50:42.215Z,98150.22
2023-02-08T05:53:10.924Z,98144.78
2023-02-08T05:55:39.193Z,98142.50
2023-02-08T05:58:07.624Z,98143.59
2023-02-08T06:00:35.916Z,98141.84
2023-02-08T06:03:04.596Z,98146.31
2023-02-08T06:05:34.454Z,98144.31
2023-02-08T06:08:02.790Z,98151.47
2023-02-08T06:10:31.201Z,98149.22
2023-02-08T06:12:59.754Z,98151.00
2023-02-08T06:15:28.737Z,98156.63
2023-02-08T06:17:57.356Z,98152.84
2023-02-08T06:20:25.685Z,98154.19
2023-02-08T06:22:56.182Z,98147.97
2023-02-08T06:25:24.532Z,98153.25
2023-02-08T06:27:52.875Z,98152.16
2023-02-08T06:30:21.500Z,98152.53
2023-02-08T06:32:49.864Z,98162.59
2023-02-08T06:35:18.364Z,98159.28
2023-02-08T06:37:46.673Z,98164.47
2023-02-08T06:40:16.436Z,98170.28
2023-02-08T06:42:44.737Z,98175.31
2023-02-08T06:45:13.799Z,98180.94
2023-02-08T06:47:42.156Z,98184.44
2023-02-08T06:50:11.217Z,98177.69
2023-02-08T06:52:39.763Z,98171.81
2023-02-08T06:55:08.471Z,98180.59
2023-02-08T06:57:38.125Z,98175.81
2023-02-08T07:00:07.408Z,98179.75
2023-02-08T07:02:35.851Z,98180.84
2023-02-08T07:05:04.140Z,98185.09
2023-02-08T07:07:32.537Z,98191.38
2023-02-08T07:10:01.211Z,98185.53
2023-02-08T07:12:29.474Z,98183.25
2023-02-08T07:14:59.083Z,98184.25
2023-02-08T07:17:27.410Z,98188.03
2023-02-08T07:19:55.729Z,98184.50
2023-02-08T07:22:24.089Z,98184.50
2023-02-08T07:24:52.494Z,98187.03
2023-02-08T07:27:21.068Z,98186.25
2023-02-08T07:29:49.386Z,98174.13
2023-02-08T07:32:19.105Z,98180.22
2023-02-08T07:34:47.542Z,98185.03
2023-02-08T07:37:15.909Z,98173.22
2023-02-08T07:39:44.334Z,98177.22
2023-02-08T07:42:12.736Z,98179.31
2023-02-08T07:44:41.039Z,98180.50
2023-02-08T07:47:09.331Z,98186.03
2023-02-08T07:49:38.997Z,98185.75
2023-02-08T07:52:07.440Z,98178.28
2023-02-08T07:54:35.764Z,98172.13
2023-02-08T07:57:04.161Z,98174.06
2023-02-08T07:59:32.591Z,98165.25
2023-02-08T08:02:00.978Z,98168.25
2023-02-08T08:04:29.385Z,98169.28
2023-02-08T08:06:59.106Z,98178.41
2023-02-08T08:09:27.559Z,98170.69
2023-02-08T08:11:55.895Z,98167.91
2023-02-08T08:14:24.263Z,98176.09
2023-02-08T08:16:52.584Z,98179.22
2023-02-08T08:19:20.880Z,98163.53
2023-02-08T08:21:49.891Z,98169.78
2023-02-08T08:24:19.526Z,98175.06
2023-02-08T08:26:47.851Z,98178.53
2023-02-08T08:29:16.213Z,98173.53
2023-02-08T08:31:45.108Z,98164.38
2023-02-08T08:34:13.469Z,98171.59
2023-02-08T08:36:41.736Z,98171.53
2023-02-08T08:39:10.086Z,98164.59
2023-02-08T08:41:39.686Z,98174.41
2023-02-08T08:44:07.955Z,98175.34
2023-02-08T08:46:36.195Z,98170.00
2023-02-08T08:49:05.100Z,98169.72
2023-02-08T08:51:35.511Z,98177.81
2023-02-08T08:54:03.841Z,98164.09
2023-02-08T08:56:32.362Z,98167.63
2023-02-08T08:59:01.972Z,98172.16
2023-02-08T09:01:31.456Z,98168.41
2023-02-08T09:04:01.269Z,98166.44
2023-02-08T09:06:29.770Z,98164.34
2023-02-08T09:08:58.085Z,98166.69
2023-02-08T09:11:26.319Z,98166.34
2023-02-08T09:13:56.326Z,98173.56
2023-02-08T09:16:26.349Z,98163.41
2023-02-08T09:18:54.718Z,98166.63
2023-02-08T09:21:25.993Z,98169.31
2023-02-08T09:23:54.326Z,98171.56
2023-02-08T09:26:23.457Z,98164.25
2023-02-08T09:28:51.948Z,98164.59
2023-02-08T09:31:21.704Z,98156.53
2023-02-08T09:33:53.116Z,98161.19
2023-02-08T09:36:22.613Z,98168.69
2023-02-08T09:38:52.017Z,98167.97
2023-02-08T09:41:33.034Z,98172.84
2023-02-08T09:44:11.332Z,98161.28
2023-02-08T09:46:42.198Z,98171.19
2023-02-08T09:49:15.694Z,98169.09
2023-02-08T09:51:47.295Z,98180.53
2023-02-08T09:54:19.617Z,98165.81
2023-02-08T09:56:48.548Z,98165.53
2023-02-08T09:59:18.736Z,98173.09
2023-02-08T10:01:47.717Z,98169.13
2023-02-08T10:04:25.513Z,98172.34
2023-02-08T10:06:53.839Z,98169.41
2023-02-08T10:09:26.590Z,98154.25
2023-02-08T10:12:00.490Z,98155.63
2023-02-08T10:14:41.516Z,98164.44
2023-02-08T10:17:25.444Z,98159.34
2023-02-08T10:20:04.254Z,98153.28
2023-02-08T10:22:43.862Z,98151.91
2023-02-08T10:25:24.851Z,98151.34
2023-02-08T10:28:06.749Z,98155.97
2023-02-08T10:30:41.128Z,98140.94
2023-02-08T10:33:13.567Z,98144.16
2023-02-08T10:35:46.330Z,98138.19
2023-02-08T10:38:44.173Z,98139.75
2023-02-08T10:41:18.414Z,98142.97
2023-02-08T10:43:50.509Z,98133.63
2023-02-08T10:46:25.522Z,98120.97
2023-02-08T10:49:03.724Z,98128.91
2023-02-08T10:51:33.487Z,98121.41
2023-02-08T10:54:01.963Z,98112.78
2023-02-08T10:56:41.008Z,98109.59
2023-02-08T10:59:17.486Z,98105.38
2023-02-08T11:01:46.596Z,98112.97
2023-02-08T11:04:15.692Z,98100.16
2023-02-08T11:06:46.889Z,98092.47
2023-02-08T11:09:22.742Z,98098.41
2023-02-08T11:11:52.747Z,98093.44
2023-02-08T11:14:30.374Z,98086.69
2023-02-08T11:17:06.200Z,98084.44
2023-02-08T11:19:36.521Z,98092.91
2023-02-08T11:22:06.789Z,98093.69
2023-02-08T11:24:40.223Z,98097.34
2023-02-08T11:27:19.153Z,98097.97
2023-02-08T11:29:47.513Z,98092.84
2023-02-08T11:32:18.552Z,98088.16
2023-02-08T11:34:47.355Z,98086.59
2023-02-08T11:37:20.913Z,98087.25
2023-02-08T11:39:52.075Z,98097.13
2023-02-08T11:42:22.106Z,98086.59
2023-02-08T11:44:50.868Z,98082.34
2023-02-08T11:47:25.621Z,98084.09
2023-02-08T11:49:55.297Z,98083.59
2023-02-08T11:52:26.746Z,98073.31
2023-02-08T11:54:56.602Z,98076.22
2023-02-08T11:57:27.908Z,98066.78
2023-02-08T12:00:16.536Z,98069.72
2023-02-08T12:02:46.444Z,98060.22
2023-02-08T12:05:17.520Z,98069.34
2023-02-08T12:08:00.142Z,98058.97
2023-02-08T12:11:03.440Z,98068.22
2023-02-08T12:13:51.142Z,98061.59
2023-02-08T12:16:34.316Z,98053.25
2023-02-08T12:19:20.449Z,98065.59
2023-02-08T12:21:51.694Z,98056.97
2023-02-08T12:24:24.485Z,98048.75
2023-02-08T12:27:16.976Z,98043.03
2023-02-08T12:29:49.524Z,98033.00
2023-02-08T12:32:26.345Z,98024.25
2023-02-08T12:35:04.465Z,98024.41
2023-02-08T12:37:59.114Z,98021.03
2023-02-08T12:40:53.956Z,98010.72
2023-02-08T12:43:33.372Z,98001.16
2023-02-08T12:46:13.551Z,98000.06
2023-02-08T12:48:49.345Z,98005.81
2023-02-08T12:51:25.676Z,98005.06
2023-02-08T12:53:55.881Z,97997.88
2023-02-08T12:56:29.295Z,97997.44
2023-02-08T12:59:11.924Z,97994.13
2023-02-08T13:01:45.169Z,97995.88
2023-02-08T13:04:15.105Z,97987.66
2023-02-08T13:06:44.868Z,97992.63
2023-02-08T13:09:17.795Z,97978.56
2023-02-08T13:11:51.446Z,97975.69
2023-02-08T13:14:27.901Z,97967.41
2023-02-08T13:16:59.879Z,97968.97
2023-02-08T13:19:31.210Z,97973.06
2023-02-08T13:21:59.978Z,97955.25
2023-02-08T13:24:34.749Z,97955.38
2023-02-08T13:27:07.077Z,97957.66
2023-02-08T13:29:36.714Z,97946.59
2023-02-08T13:32:08.578Z,97953.59
2023-02-08T13:34:39.646Z,97945.59
2023-02-08T13:37:25.197Z,97944.03
2023-02-08T13:40:01.726Z,97946.44
2023-02-08T13:42:35.545Z,97948.91
2023-02-08T13:45:05.443Z,97955.00
2023-02-08T13:47:43.723Z,97939.31
2023-02-08T13:50:40.735Z,97940.06
2023-02-08T13:53:09.537Z,97943.28
2023-02-08T13:55:59.275Z,97935.00
2023-02-08T13:59:03.329Z,97924.03
2023-02-08T14:01:35.665Z,97928.66
2023-02-08T14:04:18.772Z,97921.78
2023-02-08T14:06:49.350Z,97923.00
2023-02-08T14:09:20.459Z,97926.41
2023-02-08T14:11:50.906Z,97913.34
2023-02-08T14:14:19.560Z,97930.13
2023-02-08T14:17:21.425Z,97921.66
2023-02-08T14:19:58.414Z,97931.63
2023-02-08T14:22:28.742Z,97921.59
2023-02-08T14:25:05.338Z,97927.75
2023-02-08T14:27:39.361Z,97918.19
2023-02-08T14:30:09.707Z,97911.56
2023-02-08T14:32:41.338Z,97916.22
2023-02-08T14:35:20.694Z,97910.50
2023-02-08T14:37:52.198Z,97913.44
2023-02-08T14:40:48.576Z,97913.47
2023-02-08T14:43:34.220Z,97911.56
2023-02-08T14:46:35.901Z,97909.94
2023-02-08T14:49:06.578Z,97912.63
2023-02-08T14:51:35.328Z,97904.88
2023-02-08T14:54:12.252Z,97909.09
2023-02-08T14:56:48.791Z,97912.75
2023-02-08T14:59:18.918Z,97910.00
2023-02-08T15:01:48.770Z,97915.31
2023-02-08T15:04:19.291Z,97901.13
2023-02-08T15:07:17.088Z,97913.41
2023-02-08T15:09:45.944Z,97901.13
2023-02-08T15:12:17.744Z,97906.97
2023-02-08T15:14:46.670Z,97908.09
2023-02-08T15:17:23.149Z,97898.50
2023-02-08T15:19:54.006Z,97916.09
2023-02-08T15:22:32.751Z,97914.53
2023-02-08T15:25:02.654Z,97908.72
2023-02-08T15:27:33.037Z,97911.88
2023-02-08T15:30:01.975Z,97910.59
2023-02-08T15:32:30.880Z,97912.50
2023-02-08T15:35:01.903Z,97909.88
2023-02-08T15:37:33.873Z,97909.66
2023-02-08T15:40:02.733Z,97904.84
2023-02-08T15:42:34.227Z,97908.69
2023-02-08T15:45:04.467Z,97908.81
2023-02-08T15:47:35.873Z,97911.56
2023-02-08T15:50:06.902Z,97904.53
2023-02-08T15:52:37.284Z,97911.16
2023-02-08T15:55:07.983Z,97900.78
2023-02-08T15:57:36.922Z,97914.38
2023-02-08T16:00:08.121Z,97905.09
2023-02-08T16:02:36.611Z,97912.69
2023-02-08T16:05:18.596Z,97914.19
2023-02-08T16:07:47.473Z,97914.91
2023-02-08T16:10:25.298Z,97919.44
2023-02-08T16:12:54.498Z,97918.28
2023-02-08T16:15:42.872Z,97925.97
2023-02-08T16:18:34.049Z,97910.66
2023-02-08T16:21:06.176Z,97911.81
2023-02-08T16:23:36.027Z,97908.63
2023-02-08T16:26:19.512Z,97913.53
2023-02-08T16:28:53.886Z,97916.00
2023-02-08T16:31:26.460Z,97916.38
2023-02-08T16:33:59.571Z,97916.13
2023-02-08T16:36:33.227Z,97911.84
2023-02-08T16:39:23.661Z,97911.47
2023-02-08T16:42:20.973Z,97919.31
2023-02-08T16:45:12.827Z,97921.88
2023-02-08T16:47:42.411Z,97925.91
2023-02-08T16:50:12.654Z,97922.13
2023-02-08T16:52:42.769Z,97924.88
2023-02-08T16:55:18.473Z,97923.78
2023-02-08T16:57:48.135Z,97921.44
2023-02-08T17:00:20.343Z,97916.72
2023-02-08T17:02:49.014Z,97922.88
2023-02-08T17:05:18.584Z,97924.78
2023-02-08T17:07:48.820Z,97928.00
2023-02-08T17:10:24.319Z,97933.16
2023-02-08T17:12:57.516Z,97928.31
2023-02-08T17:15:32.579Z,97920.25
2023-02-08T17:18:00.857Z,97929.72
2023-02-08T17:20:30.434Z,97936.13
2023-02-08T17:23:01.530Z,97932.38
2023-02-08T17:25:30.419Z,97927.69
2023-02-08T17:28:02.335Z,97922.38
2023-02-08T17:30:33.036Z,97922.81
2023-02-08T17:33:01.622Z,97914.66
2023-02-08T17:35:30.050Z,97921.03
2023-02-08T17:38:00.667Z,97912.94
2023-02-08T17:40:31.125Z,97910.00
2023-02-08T17:42:59.505Z,97907.00
2023-02-08T17:45:28.150Z,97896.09
2023-02-08T17:47:57.642Z,97904.41
2023-02-08T17:50:25.940Z,97908.94
2023-02-08T17:52:55.347Z,97903.69
2023-02-08T17:55:25.347Z,97903.78
2023-02-08T17:57:54.017Z,97904.00
2023-02-08T18:00:25.308Z,97900.44
2023-02-08T18:02:55.797Z,97900.75
2023-02-08T18:05:25.333Z,97902.63
2023-02-08T18:07:55.398Z,97893.19
2023-02-08T18:10:26.058Z,97891.91
2023-02-08T18:12:54.168Z,97888.19
2023-02-08T18:15:24.183Z,97885.50
2023-02-08T18:17:52.565Z,97886.09
2023-02-08T18:20:20.999Z,97881.56
2023-02-08T18:22:49.291Z,97886.13
2023-02-08T18:25:17.734Z,97882.81
2023-02-08T18:27:47.513Z,97877.09
2023-02-08T18:30:15.868Z,97886.34
2023-02-08T18:32:44.210Z,97881.81
2023-02-08T18:35:12.717Z,97885.88
2023-02-08T18:37:41.032Z,97889.28
2023-02-08T18:40:10.624Z,97879.50
2023-02-08T18:42:38.926Z,97877.66
2023-02-08T18:45:09.762Z,97879.97
2023-02-08T18:47:39.317Z,97874.34
2023-02-08T18:50:09.202Z,97878.41
2023-02-08T18:52:37.678Z,97880.47
2023-02-08T18:55:06.559Z,97883.06
2023-02-08T18:57:38.868Z,97874.50
2023-02-08T19:00:10.460Z,97879.44
2023-02-08T19:02:39.703Z,97871.22
2023-02-08T19:05:08.755Z,97871.50
2023-02-08T19:07:38.908Z,97870.00
2023-02-08T19:10:08.792Z,97874.34
2023-02-08T19:12:37.382Z,97868.44
2023-02-08T19:15:06.305Z,97854.28
2023-02-08T19:17:36.553Z,97870.75
2023-02-08T19:20:05.906Z,97865.94
2023-02-08T19:22:35.089Z,97867.88
2023-02-08T19:25:04.119Z,97866.31
2023-02-08T19:27:32.703Z,97866.97
2023-02-08T19:30:01.729Z,97864.09
2023-02-08T19:32:30.370Z,97866.47
2023-02-08T19:35:00.812Z,97867.25
2023-02-08T19:37:30.409Z,97862.50
2023-02-08T19:39:59.659Z,97864.09
2023-02-08T19:42:29.717Z,97869.94
2023-02-08T19:44:59.603Z,97863.09
2023-02-08T19:47:48.391Z,97858.97
2023-02-08T19:50:19.358Z,97859.28
2023-02-08T19:52:48.938Z,97856.28
2023-02-08T19:55:18.851Z,97858.84
2023-02-08T19:57:48.060Z,97852.91
2023-02-08T20:00:24.003Z,97850.88
2023-02-08T20:02:53.368Z,97854.13
2023-02-08T20:05:24.245Z,97855.31
2023-02-08T20:07:53.358Z,97844.69
2023-02-08T20:10:22.647Z,97851.66
2023-02-08T20:12:51.814Z,97863.84
2023-02-08T20:15:20.618Z,97861.34
2023-02-08T20:17:49.681Z,97860.81
2023-02-08T20:20:19.738Z,97858.34
2023-02-08T20:22:49.852Z,97849.78
2023-02-08T20:25:19.118Z,97857.44
2023-02-08T20:27:48.209Z,97851.84
2023-02-08T20:30:17.641Z,97863.06
2023-02-08T20:32:47.329Z,97857.06
2023-02-08T20:35:17.173Z,97864.34
2023-02-08T20:37:46.374Z,97857.56
2023-02-08T20:40:17.540Z,97858.81
2023-02-08T20:42:46.799Z,97858.28
2023-02-08T20:45:15.834Z,97858.94
2023-02-08T20:47:46.849Z,97863.59
2023-02-08T20:50:20.425Z,97863.78
2023-02-08T20:52:49.387Z,97868.03
2023-02-08T20:55:19.245Z,97866.25
2023-02-08T20:57:47.752Z,97865.19
2023-02-08T21:00:16.449Z,97864.88
2023-02-08T21:02:44.859Z,97867.03
2023-02-08T21:05:13.513Z,97860.31
2023-02-08T21:07:41.822Z,97862.25
2023-02-08T21:10:10.461Z,97859.16
2023-02-08T21:12:40.135Z,97862.47
2023-02-08T21:15:09.605Z,97862.59
2023-02-08T21:17:40.788Z,97854.47
2023-02-08T21:20:10.199Z,97847.38
2023-02-08T21:22:38.535Z,97849.94
2023-02-08T21:25:07.469Z,97847.22
2023-02-08T21:27:35.829Z,97849.00
2023-02-08T21:30:06.230Z,97840.78
2023-02-08T21:32:34.536Z,97838.78
2023-02-08T21:35:02.848Z,97839.63
2023-02-08T21:37:31.136Z,97839.00
2023-02-08T21:39:59.463Z,97843.38
2023-02-08T21:42:27.769Z,97839.56
2023-02-08T21:44:56.091Z,97849.91
2023-02-08T21:47:25.767Z,97838.59
2023-02-08T21:50:19.770Z,97845.56
2023-02-08T21:53:05.313Z,97841.56
2023-02-08T21:55:33.690Z,97833.91
2023-02-08T21:58:01.997Z,97834.69
2023-02-08T22:00:30.338Z,97825.91
2023-02-08T22:03:00.072Z,97820.66
2023-02-08T22:05:28.506Z,97821.38
2023-02-08T22:07:59.293Z,97825.38
2023-02-08T22:10:30.634Z,97822.41
2023-02-08T22:12:59.597Z,97825.81
2023-02-08T22:15:29.574Z,97820.53
2023-02-08T22:18:01.053Z,97831.88
2023-02-08T22:20:30.532Z,97827.88
2023-02-08T22:22:58.881Z,97822.84
2023-02-08T22:25:27.275Z,97828.81
2023-02-08T22:27:55.724Z,97821.38
2023-02-08T22:30:25.615Z,97822.03
2023-02-08T22:32:54.135Z,97818.50
2023-02-08T22:35:23.861Z,97814.06
2023-02-08T22:37:52.267Z,97818.44
2023-02-08T22:40:20.883Z,97807.78
2023-02-08T22:42:49.214Z,97809.81
2023-02-08T22:45:17.609Z,97827.38
2023-02-08T22:47:46.258Z,97815.75
2023-02-08T22:50:14.650Z,97817.44
2023-02-08T22:52:44.446Z,97822.50
2023-02-08T22:55:12.810Z,97809.06
2023-02-08T22:57:43.476Z,97815.69
2023-02-08T23:00:15.795Z,97808.75
2023-02-08T23:02:44.376Z,97799.97
2023-02-08T23:05:12.798Z,97802.97
2023-02-08T23:07:41.148Z,97810.56
2023-02-08T23:10:11.813Z,97815.66
2023-02-08T23:12:40.466Z,97803.81
2023-02-08T23:15:10.792Z,97814.06
2023-02-08T23:17:39.134Z,97804.31
2023-02-08T23:20:08.272Z,97802.53
2023-02-08T23:22:37.498Z,97805.78
2023-02-08T23:25:06.775Z,97802.53
2023-02-08T23:27:36.613Z,97807.22
2023-02-08T23:30:07.839Z,97799.63
2023-02-08T23:32:37.522Z,97803.19
2023-02-08T23:35:06.565Z,97799.19
2023-02-08T23:37:34.878Z,97787.50
2023-02-08T23:40:03.232Z,97795.75
2023-02-08T23:42:31.568Z,97793.34
2023-02-08T23:45:02.384Z,97786.91
2023-02-08T23:47:32.645Z,97790.16
2023-02-08T23:50:00.972Z,97784.63
2023-02-08T23:52:29.274Z,97782.81
2023-02-08T23:54:57.574Z,97782.72
2023-02-08T23:57:25.906Z,97787.03
2023-02-08T23:59:54.199Z,97781.03
